Decatur, Mississippi
Current Conditions -  °F | °C
As of 1:58 PM on Wednesday 28 Jan 2015 (Local Time) from KMEI Reporting Station
Clear Clear  
Wind Chill: 62°   Ceiling: Unl
Heat Index: 62°   Visibility: 10mi
Dew Point: 25°   Wind: 6mph
Humidity: 24%   Direction: 30°NNE
Pressure: 30.23"   Gusts: NA
Location:  32.44°N, 89.11°W
Report Text: KMEI 281958Z 03005KT 10SM CLR 17/M04 A3023 RMK AO2 SLP235 T01671039
Loading
Personal Weather Stations






























Interactive Weather Map New forecast layout! Learn more

10-Day Weather Forecast

Advertisements
Track Severe Weather on mobile